Time;durP1;ratioP1;P1;durP2;ratioP2;P2;SDS_P1;SDS_P2;PMS_P1;PMS_P2;Temp;Humidity;BMP_temperature;BMP_pressure;BME280_temperature;BME280_humidity;BME280_pressure;Samples;Min_cycle;Max_cycle;Signal;HPM_P1;HPM_P2
2022/05/03 00:01:02;;;;;;;9.57;8.68;;;;;;;10.00;72.27;101036.22;4957008;28;20133;-71
2022/05/03 00:03:29;;;;;;;9.10;8.40;;;;;;;9.96;72.46;101033.00;4956274;28;20448;-71
2022/05/03 00:06:05;;;;;;;9.90;8.95;;;;;;;9.95;72.26;101037.44;4960588;28;20006;-71
2022/05/03 00:08:38;;;;;;;9.80;8.82;;;;;;;9.97;71.95;101030.25;4973209;28;20696;-71
2022/05/03 00:11:27;;;;;;;10.30;9.40;;;;;;;9.88;72.02;101030.16;4994509;28;20926;-70
2022/05/03 00:14:16;;;;;;;11.48;9.10;;;;;;;10.06;71.89;101031.28;4959681;28;20013;-71
2022/05/03 00:16:44;;;;;;;9.95;9.05;;;;;;;9.99;72.23;101026.66;4968272;28;20128;-71
2022/05/03 00:19:10;;;;;;;10.13;9.13;;;;;;;9.79;72.41;101026.47;4962087;28;20397;-71
2022/05/03 00:21:36;;;;;;;10.43;9.40;;;;;;;9.69;73.13;101030.81;4973891;28;20018;-71
2022/05/03 00:24:01;;;;;;;11.02;9.93;;;;;;;9.80;72.25;101028.97;4975396;28;20015;-72
2022/05/03 00:26:28;;;;;;;10.98;9.65;;;;;;;9.68;72.95;101029.13;4974502;28;20036;-72
2022/05/03 00:28:54;;;;;;;10.65;9.65;;;;;;;9.58;73.90;101024.59;4958876;28;20053;-71
2022/05/03 00:31:19;;;;;;;11.23;10.07;;;;;;;9.65;73.45;101022.28;4961731;28;20014;-71
2022/05/03 00:33:44;;;;;;;11.32;9.60;;;;;;;9.50;74.17;101026.16;4959726;28;20014;-71
2022/05/03 00:36:10;;;;;;;10.35;9.52;;;;;;;9.37;73.86;101024.50;4963763;28;20414;-70
2022/05/03 00:38:36;;;;;;;13.30;10.45;;;;;;;9.51;73.91;101025.22;4976145;28;20027;-70
2022/05/03 00:41:02;;;;;;;11.48;10.38;;;;;;;9.46;73.46;101030.84;4999090;28;20196;-73
2022/05/03 00:43:39;;;;;;;10.82;9.68;;;;;;;9.40;73.88;101020.78;4982030;28;20092;-73
2022/05/03 00:46:12;;;;;;;11.63;9.88;;;;;;;9.34;74.29;101016.81;4963538;28;20432;-73
2022/05/03 00:48:42;;;;;;;10.95;9.95;;;;;;;9.32;73.99;101021.41;4981282;28;20784;-73
2022/05/03 00:51:18;;;;;;;13.00;10.07;;;;;;;9.20;74.23;101015.28;4979072;28;20694;-72
2022/05/03 00:54:07;;;;;;;11.10;10.10;;;;;;;9.28;74.09;101015.50;4978220;28;20307;-72
2022/05/03 00:57:00;;;;;;;10.20;9.30;;;;;;;9.42;73.84;101016.22;4994296;28;20022;-73
2022/05/03 00:59:52;;;;;;;10.93;9.93;;;;;;;9.32;73.60;101012.63;4983508;28;20021;-72
2022/05/03 01:02:20;;;;;;;11.40;10.25;;;;;;;9.39;73.79;101021.72;4994522;28;20048;-71
2022/05/03 01:05:01;;;;;;;14.57;10.27;;;;;;;9.44;73.37;101016.94;4981623;28;20006;-73
2022/05/03 01:07:36;;;;;;;10.82;9.85;;;;;;;9.42;73.41;101018.88;4985250;28;20624;-70
2022/05/03 01:10:13;;;;;;;11.85;10.75;;;;;;;9.42;73.60;101013.59;4986301;28;20322;-70
2022/05/03 01:12:56;;;;;;;11.70;10.65;;;;;;;9.45;73.53;101013.34;5019642;28;20029;-70
2022/05/03 01:15:46;;;;;;;12.32;11.05;;;;;;;9.52;73.93;101011.03;4985848;28;20144;-73
2022/05/03 01:18:21;;;;;;;12.80;11.63;;;;;;;9.44;73.60;101007.19;4985801;28;20061;-73
2022/05/03 01:21:02;;;;;;;14.15;10.95;;;;;;;9.51;74.27;101006.72;5018357;28;20738;-70
2022/05/03 01:24:07;;;;;;;14.93;11.40;;;;;;;9.57;74.31;101012.31;4982159;28;20018;-71
2022/05/03 01:26:54;;;;;;;12.55;11.00;;;;;;;9.72;73.19;101012.91;4986307;28;20042;-73
2022/05/03 01:29:32;;;;;;;12.52;11.23;;;;;;;9.71;73.03;101007.75;5022544;27;20599;-70
2022/05/03 01:32:10;;;;;;;12.25;10.98;;;;;;;9.56;74.19;101010.66;5008562;28;20032;-72
2022/05/03 01:34:36;;;;;;;12.32;11.18;;;;;;;9.46;75.04;101007.06;4975101;28;20009;-72
2022/05/03 01:37:24;;;;;;;11.80;10.60;;;;;;;9.41;75.20;101006.63;4986811;28;20124;-73
2022/05/03 01:39:56;;;;;;;11.88;10.75;;;;;;;9.61;74.29;101008.47;4990636;28;20018;-72
2022/05/03 01:42:55;;;;;;;12.70;10.45;;;;;;;9.78;73.70;101006.28;5004999;28;20017;-72
2022/05/03 01:45:27;;;;;;;11.77;10.82;;;;;;;9.72;74.57;101002.34;4958594;28;20014;-72
2022/05/03 01:50:18;;;;;;;12.00;10.90;;;;;;;9.59;74.58;100997.22;4972276;28;20133;-73
2022/05/03 01:51:24;;;;;;;12.05;10.95;;;;;;;9.64;74.64;100996.81;5009611;28;20540;-73
2022/05/03 01:53:51;;;;;;;12.18;10.95;;;;;;;9.83;74.26;100990.91;4956063;28;20062;-72
2022/05/03 01:56:34;;;;;;;13.75;10.88;;;;;;;9.93;73.84;100994.44;4964732;28;20014;-71
2022/05/03 01:59:21;;;;;;;13.18;11.82;;;;;;;9.92;73.59;100994.56;4996751;28;19990;-72
2022/05/03 02:01:52;;;;;;;13.15;11.88;;;;;;;9.69;73.82;100999.94;4996117;28;20002;-73
2022/05/03 02:04:37;;;;;;;14.30;13.02;;;;;;;9.61;74.44;101008.47;4980479;28;20034;-72
2022/05/03 02:07:12;;;;;;;18.65;13.38;;;;;;;9.71;73.43;101016.50;4974735;28;20211;-72
2022/05/03 02:09:53;;;;;;;14.75;12.95;;;;;;;9.72;73.54;101009.44;4977336;28;20045;-72
2022/05/03 02:12:19;;;;;;;15.73;12.90;;;;;;;9.79;72.91;101010.59;4965304;28;20013;-72
2022/05/03 02:15:07;;;;;;;15.43;13.07;;;;;;;9.84;72.72;101008.41;4998645;28;20358;-72
2022/05/03 02:17:32;;;;;;;13.18;11.95;;;;;;;9.90;71.87;101002.63;4959201;28;20022;-71
2022/05/03 02:20:11;;;;;;;13.83;12.60;;;;;;;9.83;72.33;101000.59;4960529;28;20115;-71
2022/05/03 02:22:59;;;;;;;13.80;12.40;;;;;;;9.93;71.60;100999.72;4957968;28;20010;-70
2022/05/03 02:25:57;;;;;;;14.13;12.63;;;;;;;10.06;70.98;100990.78;4960143;28;20057;-71
2022/05/03 02:28:34;;;;;;;13.75;12.55;;;;;;;9.72;72.42;100997.03;4949444;28;20393;-71
2022/05/03 02:31:01;;;;;;;13.63;12.40;;;;;;;9.53;72.92;100987.16;4942235;28;20134;-71
2022/05/03 02:33:31;;;;;;;14.20;12.73;;;;;;;9.54;73.44;100995.91;4957093;28;20124;-71
2022/05/03 02:35:57;;;;;;;14.35;12.57;;;;;;;9.55;73.34;100998.41;4976507;28;20840;-71
2022/05/03 02:38:52;;;;;;;13.30;12.00;;;;;;;9.40;73.21;100997.00;4941034;28;20111;-71
2022/05/03 02:41:19;;;;;;;;;;;;;;;9.35;73.67;100992.09;4956482;28;20057;-71
2022/05/03 02:43:44;;;;;;;13.77;12.45;;;;;;;9.23;74.29;101004.47;4970266;28;20157;-72
2022/05/03 02:46:25;;;;;;;14.30;12.55;;;;;;;9.25;74.17;101002.56;4932966;28;20488;-71
2022/05/03 02:49:02;;;;;;;14.63;13.35;;;;;;;9.30;73.81;101004.00;4975683;28;20026;-70
2022/05/03 02:51:40;;;;;;;14.90;13.40;;;;;;;9.32;73.23;100994.13;4986564;28;20010;-72
2022/05/03 02:54:16;;;;;;;17.48;14.43;;;;;;;9.26;73.39;100998.09;4978393;28;20095;-71
2022/05/03 02:56:49;;;;;;;15.98;14.48;;;;;;;9.21;73.13;101000.28;4943501;28;20010;-71
2022/05/03 02:59:23;;;;;;;16.15;14.70;;;;;;;9.06;74.30;101002.31;4954656;28;20207;-71
2022/05/03 03:02:22;;;;;;;15.82;14.20;;;;;;;9.04;74.08;101001.59;5015490;28;20445;-71
2022/05/03 03:05:12;;;;;;;15.88;14.30;;;;;;;9.00;74.14;101011.56;4984893;28;20021;-71
2022/05/03 03:07:43;;;;;;;15.60;14.07;;;;;;;8.92;74.40;100998.94;4977071;28;20037;-71
2022/05/03 03:10:12;;;;;;;15.48;13.95;;;;;;;9.00;74.44;101006.28;5016543;27;20020;-70
2022/05/03 03:13:26;;;;;;;16.25;14.55;;;;;;;9.05;74.38;100995.34;4969587;28;20014;-71
2022/05/03 03:15:52;;;;;;;15.20;13.70;;;;;;;8.90;74.45;100994.78;4965560;28;20090;-71
2022/05/03 03:18:20;;;;;;;15.77;14.23;;;;;;;8.85;74.61;101000.41;4965592;28;20002;-71
2022/05/03 03:20:46;;;;;;;14.95;13.63;;;;;;;8.72;75.33;100997.03;4996956;28;19998;-72
2022/05/03 03:23:18;;;;;;;19.70;14.20;;;;;;;8.62;75.57;100999.53;4966796;28;20033;-72
2022/05/03 03:25:43;;;;;;;15.85;14.20;;;;;;;8.43;75.83;101000.06;4965690;28;20059;-72
2022/05/03 03:28:09;;;;;;;15.90;14.15;;;;;;;8.39;76.06;100996.84;4980403;28;20041;-72
2022/05/03 03:30:34;;;;;;;16.42;14.80;;;;;;;8.36;76.08;101004.13;4967617;28;20114;-72
2022/05/03 03:33:00;;;;;;;16.15;14.27;;;;;;;8.30;76.65;100999.31;4962387;28;20885;-72
2022/05/03 03:35:25;;;;;;;21.95;14.70;;;;;;;8.30;76.19;100999.31;4961571;28;20104;-72
2022/05/03 03:37:51;;;;;;;15.85;14.25;;;;;;;8.47;75.90;100992.81;4961010;28;20280;-72
2022/05/03 03:40:19;;;;;;;15.07;13.60;;;;;;;8.58;74.95;100998.09;4958948;28;20546;-72
2022/05/03 03:42:45;;;;;;;16.60;14.30;;;;;;;8.64;74.81;100996.78;4961340;28;20236;-71
2022/05/03 03:45:12;;;;;;;15.68;13.52;;;;;;;8.62;74.90;100998.72;4976368;27;20010;-71
2022/05/03 03:47:38;;;;;;;14.70;13.32;;;;;;;8.63;75.19;101005.66;5019748;27;20035;-71
2022/05/03 03:50:04;;;;;;;15.35;13.75;;;;;;;8.41;74.48;101002.00;5002796;27;20778;-73
2022/05/03 03:52:29;;;;;;;15.90;14.30;;;;;;;8.10;76.39;101006.09;5016911;27;20830;-72
2022/05/03 03:54:55;;;;;;;16.17;13.70;;;;;;;8.03;76.71;101005.72;5003480;27;20007;-73
2022/05/03 03:57:21;;;;;;;16.17;14.57;;;;;;;7.91;77.69;101004.84;4978758;27;20026;-73
2022/05/03 03:59:47;;;;;;;15.90;14.25;;;;;;;8.07;76.65;101015.91;5012298;28;20431;-72
2022/05/03 04:02:12;;;;;;;15.52;14.02;;;;;;;8.10;76.72;101014.84;5001525;28;19998;-73
2022/05/03 04:04:38;;;;;;;16.75;14.55;;;;;;;8.01;76.77;101015.50;4980221;28;20020;-72
2022/05/03 04:07:04;;;;;;;15.50;13.80;;;;;;;8.00;77.18;101013.84;4974400;28;20297;-73
2022/05/03 04:09:29;;;;;;;16.42;14.82;;;;;;;7.85;77.90;101014.00;4977145;28;20083;-72
2022/05/03 04:11:54;;;;;;;16.02;14.27;;;;;;;7.96;77.78;101013.22;4960265;28;20030;-72
2022/05/03 04:14:20;;;;;;;14.45;13.15;;;;;;;8.18;76.25;101012.47;4987594;27;20190;-72
2022/05/03 04:16:46;;;;;;;14.63;13.10;;;;;;;8.07;76.34;101015.06;4966830;28;20931;-72
2022/05/03 04:19:11;;;;;;;15.02;13.50;;;;;;;7.94;77.43;101006.38;4960119;28;20010;-71
2022/05/03 04:21:37;;;;;;;16.10;14.40;;;;;;;7.97;77.59;101004.38;4943576;28;20032;-72
2022/05/03 04:24:02;;;;;;;14.63;13.13;;;;;;;8.03;77.29;101008.34;4962216;28;20028;-71
2022/05/03 04:26:28;;;;;;;16.40;13.57;;;;;;;8.14;76.48;101011.03;4986142;28;20046;-70
2022/05/03 04:28:57;;;;;;;14.88;13.38;;;;;;;8.10;76.76;101009.56;4958884;28;20025;-70
2022/05/03 04:31:30;;;;;;;15.00;13.50;;;;;;;7.76;78.24;101012.06;4978914;28;20024;-70
2022/05/03 04:33:55;;;;;;;15.02;12.70;;;;;;;7.90;77.86;101013.69;4964043;28;20922;-70
2022/05/03 04:36:21;;;;;;;15.73;13.45;;;;;;;8.02;77.27;101019.81;5003623;28;20014;-70
2022/05/03 04:38:49;;;;;;;14.57;13.07;;;;;;;8.12;77.33;101023.44;4945909;28;20600;-71
2022/05/03 04:41:14;;;;;;;14.20;12.57;;;;;;;8.05;77.02;101032.78;4977661;28;20387;-70
2022/05/03 04:43:40;;;;;;;14.40;13.00;;;;;;;8.19;76.52;101039.66;4981455;28;20006;-70
2022/05/03 04:46:05;;;;;;;14.65;13.18;;;;;;;8.03;77.46;101032.06;4961292;28;20188;-70
2022/05/03 04:48:31;;;;;;;16.85;12.85;;;;;;;7.97;77.43;101038.63;4945158;28;20022;-71
2022/05/03 04:50:56;;;;;;;13.57;12.30;;;;;;;8.12;76.96;101031.38;4979416;28;20037;-72
2022/05/03 04:53:22;;;;;;;14.45;12.95;;;;;;;8.09;77.44;101036.88;4980984;28;20080;-71
2022/05/03 04:55:48;;;;;;;16.88;13.18;;;;;;;8.05;77.75;101044.19;5015400;28;20115;-71
2022/05/03 04:58:13;;;;;;;15.68;13.02;;;;;;;8.20;77.17;101042.19;4971504;28;20742;-70
2022/05/03 05:00:38;;;;;;;14.70;13.30;;;;;;;8.30;77.07;101046.78;4944086;28;19999;-72
2022/05/03 05:03:04;;;;;;;16.48;12.68;;;;;;;8.52;76.32;101052.16;4926896;28;20022;-70
2022/05/03 05:05:29;;;;;;;13.73;12.35;;;;;;;8.48;76.49;101045.44;4963218;28;20061;-72
2022/05/03 05:07:54;;;;;;;15.27;12.90;;;;;;;8.48;76.84;101050.72;4949601;28;20292;-71
2022/05/03 05:10:27;;;;;;;14.48;13.07;;;;;;;8.49;76.95;101044.47;4949718;28;21107;-71
2022/05/03 05:12:55;;;;;;;14.68;13.02;;;;;;;8.39;77.38;101051.34;5007014;28;20618;-70
2022/05/03 05:15:24;;;;;;;15.02;13.32;;;;;;;8.45;77.15;101050.09;5026953;28;20014;-71
2022/05/03 05:17:57;;;;;;;22.42;13.63;;;;;;;8.45;77.47;101047.44;4966632;28;20022;-71
2022/05/03 05:20:24;;;;;;;13.90;12.50;;;;;;;8.44;77.41;101054.50;4959046;28;20028;-70
2022/05/03 05:22:50;;;;;;;14.30;12.77;;;;;;;8.70;76.91;101059.63;4973616;28;20020;-71
2022/05/03 05:25:15;;;;;;;16.30;12.90;;;;;;;8.89;76.48;101057.25;4961884;28;20021;-72
2022/05/03 05:27:40;;;;;;;15.00;13.50;;;;;;;8.95;76.28;101053.31;4982875;28;20030;-73
2022/05/03 05:30:07;;;;;;;17.60;12.52;;;;;;;9.09;75.76;101054.88;4958844;28;20097;-72
2022/05/03 05:32:36;;;;;;;14.60;13.10;;;;;;;9.08;75.68;101051.41;4978703;28;20016;-72
2022/05/03 05:35:02;;;;;;;14.07;12.43;;;;;;;9.18;75.43;101059.44;4978049;28;20100;-69
2022/05/03 05:37:27;;;;;;;16.50;12.65;;;;;;;9.34;74.68;101058.25;4969774;28;20863;-72
2022/05/03 05:39:53;;;;;;;16.58;11.98;;;;;;;9.35;74.43;101044.91;4976853;28;20121;-72
2022/05/03 05:42:18;;;;;;;18.23;11.70;;;;;;;9.57;72.87;101059.88;4958827;28;19997;-73
2022/05/03 05:44:43;;;;;;;14.27;10.82;;;;;;;9.74;73.12;101065.63;4981195;28;20010;-72
2022/05/03 05:47:09;;;;;;;13.98;11.45;;;;;;;9.82;71.47;101063.22;4972335;28;20954;-72
2022/05/03 05:49:34;;;;;;;15.38;11.55;;;;;;;9.81;71.13;101061.53;4992439;28;20417;-73
2022/05/03 05:54:43;;;;;;;;;;;;;;;10.09;69.76;101067.22;4998470;28;20012;-72
2022/05/03 05:57:09;;;;;;;13.20;10.77;;;;;;;10.08;69.04;101068.19;4975980;28;20032;-72
2022/05/03 05:59:34;;;;;;;11.73;10.07;;;;;;;10.22;68.82;101065.22;4952987;28;20026;-71
2022/05/03 06:02:00;;;;;;;12.18;9.70;;;;;;;10.24;68.57;101063.31;4976012;28;20025;-72
2022/05/03 06:04:27;;;;;;;11.15;10.05;;;;;;;10.32;69.14;101066.16;4979665;28;20025;-71
2022/05/03 06:06:53;;;;;;;14.15;9.68;;;;;;;10.45;68.20;101062.53;4979586;28;20060;-72
2022/05/03 06:09:19;;;;;;;10.90;9.55;;;;;;;10.51;67.47;101058.53;4981998;28;20025;-72
2022/05/03 06:11:44;;;;;;;11.00;9.90;;;;;;;10.57;67.42;101076.53;4998900;28;20013;-72
2022/05/03 06:14:09;;;;;;;9.63;8.70;;;;;;;10.62;66.29;101067.25;5008740;28;20431;-73
2022/05/03 06:16:47;;;;;;;12.07;8.82;;;;;;;10.68;65.46;101070.34;4963685;28;20166;-70
2022/05/03 06:19:12;;;;;;;9.07;8.13;;;;;;;10.76;65.02;101071.38;4967825;28;20420;-71
2022/05/03 06:21:37;;;;;;;8.70;8.00;;;;;;;10.86;63.43;101076.72;4963340;28;20086;-71
2022/05/03 06:24:03;;;;;;;10.02;7.75;;;;;;;10.99;63.51;101076.53;4980394;28;20918;-71
2022/05/03 06:26:29;;;;;;;8.93;7.38;;;;;;;11.08;63.23;101066.94;4998337;28;20399;-72
2022/05/03 06:28:56;;;;;;;9.07;7.93;;;;;;;11.10;62.80;101080.91;4976555;28;20079;-71
2022/05/03 06:31:23;;;;;;;11.63;8.57;;;;;;;11.16;63.11;101075.06;5018286;28;20006;-71
2022/05/03 06:33:48;;;;;;;9.43;8.55;;;;;;;11.33;63.13;101079.72;4998200;28;20010;-72
2022/05/03 06:36:15;;;;;;;9.70;7.80;;;;;;;11.45;62.55;101080.50;5000674;28;20017;-72
2022/05/03 06:38:40;;;;;;;9.15;7.85;;;;;;;11.47;62.23;101083.84;4980947;28;20037;-71
2022/05/03 06:41:06;;;;;;;14.02;8.85;;;;;;;11.53;62.01;101082.44;4979230;28;20023;-72
2022/05/03 06:43:31;;;;;;;9.00;7.78;;;;;;;11.57;60.91;101086.53;4990346;28;20472;-71
2022/05/03 06:45:56;;;;;;;7.63;6.90;;;;;;;11.63;60.41;101093.09;4955948;28;20274;-72
2022/05/03 06:48:22;;;;;;;8.57;7.78;;;;;;;11.72;60.46;101091.44;4975691;28;20426;-72
2022/05/03 06:50:47;;;;;;;9.00;8.10;;;;;;;11.86;60.93;101085.78;4960777;28;20037;-72
2022/05/03 06:53:13;;;;;;;9.52;7.53;;;;;;;11.92;60.49;101093.16;4956084;28;20037;-71
2022/05/03 06:55:38;;;;;;;9.20;7.65;;;;;;;11.98;61.10;101089.16;4975305;28;20384;-73
2022/05/03 06:58:03;;;;;;;9.50;7.63;;;;;;;12.07;59.42;101087.47;4921206;28;20299;-71
2022/05/03 07:00:29;;;;;;;7.95;7.18;;;;;;;12.11;59.30;101099.50;4929007;28;20010;-74
2022/05/03 07:02:54;;;;;;;8.95;8.10;;;;;;;12.14;59.88;101099.22;4940996;28;20018;-71
2022/05/03 07:05:20;;;;;;;11.80;7.70;;;;;;;12.20;58.61;101104.00;4940259;28;20033;-71
2022/05/03 07:07:45;;;;;;;11.55;7.53;;;;;;;12.33;58.45;101106.38;4975414;28;21095;-71
2022/05/03 07:10:10;;;;;;;10.43;7.80;;;;;;;12.41;58.09;101103.84;4922637;28;20019;-72
2022/05/03 07:12:36;;;;;;;7.80;7.20;;;;;;;12.48;57.68;101110.28;4953303;28;20087;-72
2022/05/03 07:15:04;;;;;;;7.30;6.70;;;;;;;12.49;57.97;101106.66;4949962;28;20022;-72
2022/05/03 07:22:58;;;;;;;9.40;7.00;;;;;;;12.86;58.24;101107.69;4960748;28;20038;-71
2022/05/03 07:25:24;;;;;;;8.23;7.25;;;;;;;12.90;56.18;101106.44;4941948;28;20509;-71
2022/05/03 07:27:50;;;;;;;9.70;6.95;;;;;;;12.94;56.76;101099.84;4965687;28;20816;-73
2022/05/03 07:30:15;;;;;;;7.55;6.50;;;;;;;13.10;57.06;101109.03;4970863;28;20069;-71
2022/05/03 07:32:44;;;;;;;8.00;6.75;;;;;;;13.21;56.35;101116.84;4982789;28;20032;-72
2022/05/03 07:35:09;;;;;;;7.82;7.03;;;;;;;13.32;55.74;101115.84;5002390;28;20005;-72
2022/05/03 07:37:35;;;;;;;7.43;6.80;;;;;;;13.37;55.96;101116.28;4959702;28;20099;-72
2022/05/03 07:40:01;;;;;;;8.90;6.63;;;;;;;13.39;54.38;101115.13;4995381;28;20086;-72
2022/05/03 07:42:26;;;;;;;6.60;5.97;;;;;;;13.50;54.60;101118.59;4962849;28;20029;-72
2022/05/03 07:44:51;;;;;;;7.20;6.50;;;;;;;13.57;54.96;101117.03;4981514;28;20014;-73
2022/05/03 07:47:17;;;;;;;8.02;6.15;;;;;;;13.60;53.74;101116.72;4961751;28;20107;-72
2022/05/03 07:49:43;;;;;;;7.65;6.25;;;;;;;13.70;54.07;101112.19;4938651;28;20121;-72
2022/05/03 07:52:08;;;;;;;10.43;6.38;;;;;;;13.84;53.01;101110.03;4954782;28;20019;-72
2022/05/03 07:54:34;;;;;;;7.05;5.90;;;;;;;13.84;52.88;101107.38;4977091;28;20970;-72
2022/05/03 07:56:59;;;;;;;9.20;6.10;;;;;;;13.95;52.94;101107.16;4977486;28;20723;-72
2022/05/03 07:59:25;;;;;;;6.07;5.47;;;;;;;14.12;53.06;101110.00;4966387;28;20010;-71
2022/05/03 08:01:52;;;;;;;6.45;5.43;;;;;;;14.29;51.68;101117.13;4958219;28;20409;-72
2022/05/03 08:04:18;;;;;;;6.82;5.40;;;;;;;14.36;51.28;101107.56;4942616;28;20117;-71
2022/05/03 08:06:43;;;;;;;10.82;5.95;;;;;;;14.56;51.33;101102.06;4960171;28;20060;-72
2022/05/03 08:09:08;;;;;;;6.03;5.50;;;;;;;14.81;51.81;101110.28;4940328;28;20121;-72
2022/05/03 08:11:34;;;;;;;8.80;5.35;;;;;;;14.89;50.18;101112.97;4933526;28;20420;-72
2022/05/03 08:13:59;;;;;;;8.45;5.20;;;;;;;14.89;51.42;101121.84;4977872;28;20022;-72
2022/05/03 08:16:25;;;;;;;5.38;4.85;;;;;;;15.06;50.70;101106.78;4958326;28;20029;-72
2022/05/03 08:18:50;;;;;;;6.57;4.78;;;;;;;15.21;51.18;101112.34;4919113;28;21082;-72
2022/05/03 08:21:16;;;;;;;5.65;5.18;;;;;;;15.48;51.29;101123.00;4945144;28;20807;-73
2022/05/03 08:23:41;;;;;;;7.03;6.43;;;;;;;15.59;50.18;101117.38;4926085;28;20067;-72
2022/05/03 08:26:06;;;;;;;10.20;6.60;;;;;;;15.63;48.55;101116.06;4942235;28;20014;-72
2022/05/03 08:28:32;;;;;;;6.20;5.68;;;;;;;15.89;46.26;101116.03;4986353;28;20355;-71
2022/05/03 08:30:58;;;;;;;6.30;5.70;;;;;;;16.14;45.82;101124.94;4975275;28;20021;-72
2022/05/03 08:33:23;;;;;;;6.30;5.45;;;;;;;16.23;45.38;101124.91;4977125;28;20982;-73
2022/05/03 08:35:49;;;;;;;6.00;5.47;;;;;;;16.36;44.46;101127.09;4973949;28;20818;-72
2022/05/03 08:43:43;;;;;;;8.90;5.80;;;;;;;16.98;45.38;101124.78;4959093;28;20880;-72
2022/05/03 08:46:08;;;;;;;7.72;6.63;;;;;;;17.15;43.86;101125.59;4956780;28;20018;-73
2022/05/03 08:48:35;;;;;;;6.43;5.47;;;;;;;17.25;43.88;101127.25;4966808;28;20041;-72
2022/05/03 08:51:00;;;;;;;7.40;5.38;;;;;;;17.35;44.35;101130.56;4940015;28;20432;-73
2022/05/03 08:53:26;;;;;;;6.18;5.45;;;;;;;17.54;42.77;101126.63;4935054;28;20466;-72
2022/05/03 08:55:51;;;;;;;6.57;5.10;;;;;;;17.63;42.53;101120.25;4937178;28;20353;-72
2022/05/03 08:58:18;;;;;;;7.40;5.53;;;;;;;17.64;42.43;101124.59;4947236;28;20022;-72
2022/05/03 09:00:43;;;;;;;5.63;5.20;;;;;;;17.86;43.77;101125.63;4947561;28;20015;-72
2022/05/03 09:03:08;;;;;;;5.38;4.97;;;;;;;18.04;41.62;101129.94;4987689;28;20669;-73
2022/05/03 09:05:34;;;;;;;6.15;5.65;;;;;;;18.19;42.60;101128.16;4954296;28;20017;-72
2022/05/03 09:08:00;;;;;;;6.88;6.20;;;;;;;18.30;41.99;101137.66;4973728;28;20133;-73
2022/05/03 09:10:32;;;;;;;6.30;5.18;;;;;;;18.58;42.11;101134.41;4995446;28;20010;-71
2022/05/03 09:13:18;;;;;;;5.07;4.60;;;;;;;18.54;39.89;101133.94;4955733;28;20076;-72
2022/05/03 09:15:43;;;;;;;4.70;4.30;;;;;;;18.81;38.98;101128.19;4962313;28;20453;-73
2022/05/03 09:18:10;;;;;;;5.57;5.18;;;;;;;19.11;38.52;101136.31;4937509;28;20925;-73
2022/05/03 09:23:49;;;;;;;7.05;5.38;;;;;;;19.07;37.92;101145.75;4872066;28;20013;-72
2022/05/03 09:26:21;;;;;;;7.53;6.15;;;;;;;18.81;38.28;101145.13;4856054;28;20344;-72
2022/05/03 09:29:03;;;;;;;6.22;5.68;;;;;;;18.64;41.58;101141.75;4923264;28;20040;-72
2022/05/03 09:31:35;;;;;;;6.47;5.15;;;;;;;19.05;39.65;101133.34;4950744;28;20133;-73
2022/05/03 09:34:19;;;;;;;5.25;4.85;;;;;;;19.25;38.55;101129.28;4987884;28;20021;-72
2022/05/03 09:36:46;;;;;;;7.50;4.20;;;;;;;19.91;37.61;101134.69;4969133;28;20034;-72
2022/05/03 09:39:31;;;;;;;4.00;3.70;;;;;;;20.45;35.86;101128.03;4974940;28;20324;-73
2022/05/03 09:42:06;;;;;;;5.05;4.07;;;;;;;20.72;35.67;101129.13;4970820;28;20996;-73
2022/05/03 09:44:36;;;;;;;6.15;4.18;;;;;;;21.21;34.31;101122.00;4992380;28;20018;-73
2022/05/03 09:47:01;;;;;;;4.80;4.05;;;;;;;21.50;34.73;101130.03;4994363;28;20045;-73
2022/05/03 09:49:35;;;;;;;4.45;4.13;;;;;;;21.51;32.79;101134.41;4983982;28;20022;-72
2022/05/03 09:52:00;;;;;;;4.57;3.80;;;;;;;21.90;34.80;101131.06;4979092;28;20923;-72
2022/05/03 09:54:26;;;;;;;4.20;3.83;;;;;;;21.96;34.68;101122.16;4978806;28;20087;-72
2022/05/03 09:56:52;;;;;;;4.28;3.92;;;;;;;22.19;32.31;101118.25;4962509;28;20066;-73
2022/05/03 09:59:17;;;;;;;4.82;4.05;;;;;;;22.46;32.56;101121.00;4969818;28;20025;-72
2022/05/03 10:01:43;;;;;;;4.78;4.28;;;;;;;22.47;31.84;101120.00;4966270;28;20010;-73
2022/05/03 10:04:08;;;;;;;4.30;3.90;;;;;;;22.76;31.60;101116.06;4960691;28;20401;-73
2022/05/03 10:06:34;;;;;;;5.07;4.50;;;;;;;22.85;31.88;101118.53;4988876;28;20776;-72
2022/05/03 10:09:00;;;;;;;4.63;4.10;;;;;;;23.15;31.36;101116.22;4985493;28;20001;-72
2022/05/03 10:11:26;;;;;;;4.55;4.15;;;;;;;23.66;32.10;101120.00;4981639;28;20021;-72
2022/05/03 10:13:54;;;;;;;4.38;3.97;;;;;;;23.42;30.14;101108.03;5000032;28;20005;-73
2022/05/03 10:21:55;;;;;;;4.97;4.60;;;;;;;23.61;30.93;101117.94;4987667;28;20071;-73
2022/05/03 10:24:21;;;;;;;5.00;4.60;;;;;;;24.23;29.87;101125.53;4976286;28;20089;-71
2022/05/03 10:26:52;;;;;;;5.28;4.88;;;;;;;24.53;30.58;101114.06;4995504;28;20045;-72
2022/05/03 10:29:18;;;;;;;4.90;4.40;;;;;;;24.37;30.72;101111.91;4992419;28;20056;-73
2022/05/03 10:32:06;;;;;;;4.95;4.20;;;;;;;24.54;28.98;101118.44;4991510;28;20523;-73
2022/05/03 10:34:56;;;;;;;4.95;4.55;;;;;;;24.54;28.84;101115.75;4970288;28;20499;-73
2022/05/03 10:37:35;;;;;;;5.10;4.60;;;;;;;24.94;27.69;101106.47;4966950;28;20025;-73
2022/05/03 10:40:11;;;;;;;4.78;4.35;;;;;;;24.96;25.83;101116.00;4992296;28;20124;-73
2022/05/03 10:42:37;;;;;;;4.97;4.47;;;;;;;25.32;26.82;101108.97;4991740;28;20001;-73
2022/05/03 10:45:06;;;;;;;4.97;4.47;;;;;;;25.79;26.90;101110.28;4963578;28;20083;-73
2022/05/03 10:47:44;;;;;;;4.97;4.68;;;;;;;25.86;25.95;101116.44;4981316;28;20740;-73
2022/05/03 10:50:21;;;;;;;8.05;4.88;;;;;;;26.19;26.42;101115.19;4996818;28;20005;-72
2022/05/03 10:52:55;;;;;;;5.28;4.88;;;;;;;25.83;27.51;101106.91;5010854;28;20789;-72
2022/05/03 10:55:21;;;;;;;5.53;4.82;;;;;;;25.82;25.75;101107.09;5011171;28;20026;-72
2022/05/03 10:58:25;;;;;;;5.32;4.90;;;;;;;26.19;25.79;101109.75;4978139;28;20032;-72
2022/05/03 11:01:21;;;;;;;4.20;3.90;;;;;;;26.38;24.10;101100.47;4972169;28;20001;-73
2022/05/03 11:03:46;;;;;;;5.55;5.15;;;;;;;25.60;24.94;101104.91;5011857;28;20084;-72
2022/05/03 11:06:25;;;;;;;5.70;5.20;;;;;;;25.48;24.83;101098.59;5012136;28;21033;-72
2022/05/03 11:09:08;;;;;;;5.38;4.80;;;;;;;25.69;25.95;101102.69;4991871;28;20466;-73
2022/05/03 11:11:47;;;;;;;5.10;4.70;;;;;;;26.04;26.28;101102.84;5009891;28;20021;-72
2022/05/03 11:16:48;;;;;;;5.05;4.75;;;;;;;26.25;23.58;101086.28;4991296;28;20370;-73
2022/05/03 11:19:23;;;;;;;4.88;4.40;;;;;;;26.77;26.28;101088.38;4976371;28;20056;-73
2022/05/03 11:21:49;;;;;;;5.18;4.72;;;;;;;26.81;23.65;101095.78;4986900;28;20025;-73
2022/05/03 11:24:21;;;;;;;6.38;4.80;;;;;;;26.92;23.28;101091.44;4976417;28;20789;-73
2022/05/03 11:26:47;;;;;;;5.82;5.00;;;;;;;27.02;23.75;101086.22;5011520;28;20408;-72
2022/05/03 11:29:13;;;;;;;5.18;4.72;;;;;;;26.78;24.66;101084.56;4972980;28;20064;-73
2022/05/03 11:31:38;;;;;;;5.28;4.75;;;;;;;27.18;24.86;101089.25;4958237;28;20125;-74
2022/05/03 11:34:06;;;;;;;5.40;5.00;;;;;;;27.48;23.69;101078.19;5011156;27;20049;-72
2022/05/03 11:36:31;;;;;;;5.25;4.85;;;;;;;26.59;22.62;101070.28;5013158;27;20493;-73
2022/05/03 11:38:57;;;;;;;6.47;4.45;;;;;;;27.32;25.04;101073.50;4978493;28;20436;-72
2022/05/03 11:41:24;;;;;;;5.45;5.05;;;;;;;26.86;23.87;101076.06;4995435;28;20090;-73
2022/05/03 11:43:49;;;;;;;5.22;4.80;;;;;;;27.04;23.30;101075.09;5009646;28;20438;-72
2022/05/03 11:46:16;;;;;;;4.72;4.32;;;;;;;27.42;23.84;101079.19;4967532;28;20472;-73
2022/05/03 11:48:42;;;;;;;4.75;4.45;;;;;;;27.74;23.83;101065.94;4975334;28;20144;-73
2022/05/03 11:56:36;;;;;;;4.43;4.13;;;;;;;28.25;23.57;101071.44;4998172;28;20068;-72
2022/05/03 11:59:02;;;;;;;5.47;4.38;;;;;;;28.23;23.82;101068.16;4964580;28;20368;-75
2022/05/03 12:01:32;;;;;;;4.40;4.05;;;;;;;28.15;22.34;101062.31;4973667;28;20113;-73
2022/05/03 12:03:58;;;;;;;5.22;4.75;;;;;;;27.89;21.62;101054.50;4974759;28;20551;-74
2022/05/03 12:06:24;;;;;;;4.05;3.75;;;;;;;28.31;22.49;101056.03;4971765;28;20009;-73